Portada
METAR-TAF:

METAR-TAF

Aeroports :

Timimoun, Algèria

latitud: 29-15N, longitud: 000-17E, altitud: 312 m

Observació

L'informe es va fer fa 56 minuts, a les 17:00 UTC
Vent 11 kt del Sud-Oest
Temperatura 32°C
Humitat 11%
Pressió 1001 hPa
Visibilitat 10 km o més
sense núvols per sota de 1500 mi sense presència de cumulonimbus.

METAR: DAUT 231700Z 22011KT CAVOK 32/M02 Q1001

Hora: 18:56 (17:56 UTC)

Pronòstic

L'informe es va fer fa 3 hores i 56 minuts, a les 14:00 UTC
Pronòstic vàlid del 23 a les 15 UTC al 23 a les 24 UTC
Vent 12 kt del Sud/Sud-Oest
Visibilitat 10 km o més
sense núvols per sota de 1500 mi sense presència de cumulonimbus.
Probabilitat 40% :
Temporalment
l' 23 a les 15 UTC al 23 a les 18 UTC
Vent 24 kt del Sud-Oest
Visibilitat: 3000 m
torb baixa de sorra

TAF: DAUT 231400Z 2315/2324 20012KT CAVOK PROB40 TEMPO 2315/2318 22024KT 3000 DRSA

Observacions i pronòstics meteorològics de més de 4000 aeroports (METAR i TAF).

Les estacions disponibles són els punts grocs i vermells al mapa.

Posi el ratolí al punt desitjat per veure el nom de l'estació.

Feu clic per veure les observacions i els pronòstics meteorològics.

Per canviar el mapa: feu clic els botons verds amb una creu de color negre per apropar; al botó verd amb un guió per allunyar la imatge; o en les fletxes verdes per a mapes adjacents.


METAR-TAF: